createdAt,value
2019-03-16T00:01:14.720Z,7.5
2019-03-16T00:06:20.079Z,7.4
2019-03-16T00:11:25.472Z,7.5
2019-03-16T00:16:30.764Z,7.5
2019-03-16T00:21:36.812Z,7.6
2019-03-16T00:26:42.439Z,7.7
2019-03-16T00:31:46.528Z,7.7
2019-03-16T00:36:51.722Z,7.8
2019-03-16T00:41:57.080Z,7.9
2019-03-16T00:47:00.743Z,7.9
2019-03-16T00:52:06.150Z,8
2019-03-16T00:57:11.527Z,8.2
2019-03-16T01:02:28.897Z,8.4
2019-03-16T01:07:25.793Z,8.4
2019-03-16T01:12:31.164Z,8.6
2019-03-16T01:17:36.176Z,8.8
2019-03-16T01:22:41.803Z,8.9
2019-03-16T01:27:47.106Z,9
2019-03-16T01:32:52.594Z,9.2
2019-03-16T01:37:57.653Z,9.2
2019-03-16T01:43:01.436Z,9.3
2019-03-16T01:48:06.668Z,9.4
2019-03-16T01:53:11.905Z,9.4
2019-03-16T01:58:17.416Z,9.5
2019-03-16T02:03:21.225Z,9.6
2019-03-16T02:08:26.725Z,9.6
2019-03-16T02:13:31.989Z,9.7
2019-03-16T02:23:40.918Z,9.8
2019-03-16T02:28:46.179Z,9.8
2019-03-16T02:33:51.418Z,9.9
2019-03-16T02:38:57.226Z,9.9
2019-03-16T02:44:02.747Z,10
2019-03-16T02:49:07.982Z,10
2019-03-16T02:54:13.705Z,10.1
2019-03-16T02:59:19.125Z,10.2
2019-03-16T03:04:24.447Z,10.2
2019-03-16T03:09:30.045Z,10.4
2019-03-16T03:14:35.487Z,10.4
2019-03-16T03:19:40.520Z,10.4
2019-03-16T03:24:46.664Z,10.4
2019-03-16T03:29:52.060Z,10.3
2019-03-16T03:35:00.676Z,10.4
2019-03-16T03:40:06.074Z,10.4
2019-03-16T03:45:12.218Z,10.4
2019-03-16T03:50:17.609Z,10.3
2019-03-16T03:55:23.003Z,10.4
2019-03-16T04:00:26.739Z,10.4
2019-03-16T04:05:32.227Z,10.4
2019-03-16T04:10:37.580Z,10.4
2019-03-16T04:15:44.121Z,10.4
2019-03-16T04:20:49.270Z,10.4
2019-03-16T04:25:54.520Z,10.3
2019-03-16T04:30:58.907Z,10.1
2019-03-16T04:36:04.130Z,10.1
2019-03-16T04:41:09.623Z,10
2019-03-16T04:46:14.671Z,10
2019-03-16T04:51:19.846Z,10
2019-03-16T04:56:25.291Z,10
2019-03-16T05:01:30.354Z,9.9
2019-03-16T05:06:35.620Z,9.7
2019-03-16T05:11:39.400Z,9.6
2019-03-16T05:16:44.664Z,9.4
2019-03-16T05:21:49.817Z,9.3
2019-03-16T05:26:55.252Z,9.3
2019-03-16T05:32:00.672Z,9.3
2019-03-16T05:37:05.865Z,9.4
2019-03-16T05:42:11.155Z,9.4
2019-03-16T05:47:16.608Z,9.4
2019-03-16T05:52:22.031Z,9.4
2019-03-16T05:57:27.392Z,9.4
2019-03-16T06:02:32.440Z,9.4
2019-03-16T06:07:37.662Z,9.4
2019-03-16T06:12:41.661Z,9.4
2019-03-16T06:17:47.003Z,9.5
2019-03-16T06:22:52.117Z,9.4
2019-03-16T06:27:57.311Z,9.4
2019-03-16T06:33:02.774Z,9.6
2019-03-16T06:38:08.090Z,9.6
2019-03-16T06:43:13.075Z,9.7
2019-03-16T06:48:18.587Z,9.8
2019-03-16T06:53:23.567Z,9.8
2019-03-16T06:58:23.837Z,9.9
2019-03-16T07:03:28.740Z,10.1
2019-03-16T07:08:35.224Z,10.2
2019-03-16T07:13:40.459Z,10.2
2019-03-16T07:18:59.297Z,10.1
2019-03-16T07:23:54.422Z,10.1
2019-03-16T07:29:00.420Z,10.5
2019-03-16T07:34:05.671Z,10.5
2019-03-16T07:39:11.114Z,10.7
2019-03-16T07:44:16.578Z,10.9
2019-03-16T07:49:22.180Z,11.1
2019-03-16T07:54:27.183Z,11.1
2019-03-16T07:59:38.960Z,11.4
2019-03-16T08:04:45.450Z,12.3
2019-03-16T08:09:49.142Z,12.3
2019-03-16T08:14:54.200Z,13.3
2019-03-16T08:19:59.836Z,13.3
2019-03-16T08:25:04.889Z,12.9
2019-03-16T08:30:10.154Z,12.6
2019-03-16T08:35:15.495Z,12.7
2019-03-16T08:40:20.795Z,13.2
2019-03-16T08:45:26.040Z,13.2
2019-03-16T08:50:31.308Z,13.1
2019-03-16T08:55:36.416Z,13.3
2019-03-16T09:00:41.809Z,13.9
2019-03-16T09:05:47.025Z,14.8
2019-03-16T09:10:52.720Z,15.8
2019-03-16T09:15:58.000Z,16.1
2019-03-16T09:21:03.258Z,16.2
2019-03-16T09:26:08.613Z,16.5
2019-03-16T09:31:16.283Z,18.1
2019-03-16T09:36:21.661Z,18.1
2019-03-16T09:41:27.296Z,18.6
2019-03-16T09:46:32.396Z,18.2
2019-03-16T09:51:36.492Z,16.9
2019-03-16T09:56:40.785Z,15.6
2019-03-16T10:01:46.601Z,14.6
2019-03-16T10:06:52.211Z,13.6
2019-03-16T10:11:57.481Z,13.6
2019-03-16T10:17:02.662Z,13.2
2019-03-16T10:22:08.099Z,12.8
2019-03-16T10:27:13.548Z,12.5
2019-03-16T10:32:19.532Z,12.1
2019-03-16T10:37:25.130Z,12
2019-03-16T10:42:30.537Z,12
2019-03-16T10:47:34.109Z,12.1
2019-03-16T10:52:39.763Z,12.2
2019-03-16T10:57:48.264Z,12.2
2019-03-16T11:02:53.746Z,12.1
2019-03-16T11:07:58.969Z,12
2019-03-16T11:13:04.295Z,12
2019-03-16T11:18:09.624Z,12
2019-03-16T11:23:14.967Z,12.2
2019-03-16T11:28:20.539Z,12.1
2019-03-16T11:33:25.043Z,12
2019-03-16T11:38:30.838Z,12
2019-03-16T11:43:36.498Z,11.9
2019-03-16T11:48:41.560Z,11.9
2019-03-16T11:53:46.889Z,11.8
2019-03-16T11:58:52.074Z,11.7
2019-03-16T12:03:57.351Z,11.6
2019-03-16T12:09:02.812Z,11.5
2019-03-16T12:14:08.635Z,11.4
2019-03-16T12:19:13.776Z,11.7
2019-03-16T12:24:18.910Z,11.7
2019-03-16T12:29:35.693Z,11.5
2019-03-16T12:34:30.830Z,11.5
2019-03-16T12:39:37.593Z,11.7
2019-03-16T12:44:42.872Z,11.7
2019-03-16T12:49:48.263Z,11.8
2019-03-16T12:54:53.572Z,11.9
2019-03-16T12:59:58.718Z,11.8
2019-03-16T13:05:04.095Z,11.8
2019-03-16T13:10:09.622Z,11.6
2019-03-16T13:15:14.847Z,11.6
2019-03-16T13:20:20.090Z,11.6
2019-03-16T13:25:25.413Z,11.7
2019-03-16T13:30:30.609Z,11.7
2019-03-16T13:35:36.002Z,11.6
2019-03-16T13:40:41.710Z,11.5
2019-03-16T13:45:47.161Z,11.5
2019-03-16T13:50:52.199Z,11.5
2019-03-16T13:55:58.157Z,11.6
2019-03-16T14:01:03.332Z,11.6
2019-03-16T14:06:09.216Z,11.6
2019-03-16T14:11:14.741Z,11.6
2019-03-16T14:16:20.076Z,11.7
2019-03-16T14:21:25.250Z,11.7
2019-03-16T14:26:30.887Z,11.6
2019-03-16T14:31:36.200Z,11.5
2019-03-16T14:36:41.468Z,11.4
2019-03-16T14:41:45.703Z,11.5
2019-03-16T14:46:51.004Z,11.4
2019-03-16T14:51:56.109Z,11.5
2019-03-16T14:57:03.911Z,11.6
2019-03-16T15:02:09.368Z,11.6
2019-03-16T15:07:13.374Z,11.5
2019-03-16T15:12:19.133Z,11.4
2019-03-16T15:17:27.431Z,11.4
2019-03-16T15:22:32.591Z,11.4
2019-03-16T15:27:37.028Z,11.2
2019-03-16T15:32:42.181Z,11.2
2019-03-16T15:37:47.384Z,11.2
2019-03-16T15:42:52.605Z,11.2
2019-03-16T15:47:58.423Z,11.2
2019-03-16T15:53:03.656Z,11.1
2019-03-16T16:03:13.893Z,11
2019-03-16T16:08:21.478Z,10.7
2019-03-16T16:13:26.560Z,10.7
2019-03-16T16:18:31.952Z,10.6
2019-03-16T16:23:37.165Z,10.6
2019-03-16T16:28:41.780Z,10.6
2019-03-16T16:33:47.127Z,10.5
2019-03-16T16:38:50.828Z,10.5
2019-03-16T16:43:55.841Z,10.5
2019-03-16T16:49:01.144Z,10.3
2019-03-16T16:54:07.537Z,10.2
2019-03-16T16:59:12.810Z,10.2
2019-03-16T17:04:18.128Z,10.2
2019-03-16T17:09:23.677Z,10.2
2019-03-16T17:14:28.976Z,10.2
2019-03-16T17:19:34.373Z,10.1
2019-03-16T17:24:39.690Z,10.1
2019-03-16T17:29:45.714Z,10
2019-03-16T17:34:51.030Z,10
2019-03-16T17:39:54.855Z,10
2019-03-16T17:44:59.988Z,10
2019-03-16T17:50:05.949Z,10
2019-03-16T17:55:11.155Z,9.9
2019-03-16T18:00:16.607Z,9.9
2019-03-16T18:05:21.845Z,9.8
2019-03-16T18:10:27.341Z,9.8
2019-03-16T18:15:32.845Z,9.8
2019-03-16T18:20:38.370Z,9.9
2019-03-16T18:25:43.559Z,9.8
2019-03-16T18:30:49.080Z,9.8
2019-03-16T18:35:54.388Z,9.8
2019-03-16T18:40:59.808Z,9.8
2019-03-16T18:46:04.909Z,9.8
2019-03-16T18:51:10.380Z,9.8
2019-03-16T18:56:15.754Z,9.7
2019-03-16T19:01:21.120Z,9.8
2019-03-16T19:06:26.498Z,9.7
2019-03-16T19:11:30.772Z,9.6
2019-03-16T19:16:36.061Z,9.6
2019-03-16T19:21:44.010Z,9.5
2019-03-16T19:26:53.328Z,9.5
2019-03-16T19:31:58.743Z,9.5
2019-03-16T19:37:03.840Z,9.5
2019-03-16T19:42:09.161Z,9.4
2019-03-16T19:47:14.259Z,9.4
2019-03-16T19:52:19.481Z,9.4
2019-03-16T19:57:24.782Z,9.4
2019-03-16T20:02:30.061Z,9.4
2019-03-16T20:07:34.074Z,9.4
2019-03-16T20:12:39.848Z,9.4
2019-03-16T20:17:45.252Z,9.4
2019-03-16T20:22:50.819Z,9.4
2019-03-16T20:27:54.743Z,9.4
2019-03-16T20:33:05.963Z,9.4
2019-03-16T20:38:01.264Z,9.4
2019-03-16T20:43:04.868Z,9.4
2019-03-16T20:48:10.140Z,9.3
2019-03-16T20:53:15.777Z,9
2019-03-16T20:58:20.974Z,9
2019-03-16T21:03:26.561Z,8.9
2019-03-16T21:08:31.767Z,8.8
2019-03-16T21:13:37.739Z,8.6
2019-03-16T21:18:43.301Z,8.6
2019-03-16T21:23:48.798Z,8.5
2019-03-16T21:28:54.374Z,8.4
2019-03-16T21:33:59.818Z,8.4
2019-03-16T21:39:04.968Z,8.4
2019-03-16T21:44:11.033Z,8.5
2019-03-16T21:49:14.910Z,8.5
2019-03-16T21:54:20.392Z,8.5
2019-03-16T21:59:28.333Z,8.6
2019-03-16T22:04:34.654Z,8.5
2019-03-16T22:09:39.766Z,8.6
2019-03-16T22:14:45.000Z,8.6
2019-03-16T22:19:50.441Z,8.6
2019-03-16T22:24:54.193Z,8.6
2019-03-16T22:29:59.324Z,8.6
2019-03-16T22:35:05.336Z,8.6
2019-03-16T22:40:13.913Z,8.6
2019-03-16T22:45:18.984Z,8.7
2019-03-16T22:50:24.385Z,8.7
2019-03-16T22:55:29.604Z,8.7
2019-03-16T23:00:37.067Z,8.8
2019-03-16T23:05:41.136Z,8.9
2019-03-16T23:10:46.304Z,9.1
2019-03-16T23:15:51.401Z,9.2
2019-03-16T23:20:56.349Z,9.4
2019-03-16T23:26:01.719Z,9.5
2019-03-16T23:31:06.861Z,9.7
2019-03-16T23:36:47.812Z,9.8
2019-03-16T23:41:53.159Z,9.8
2019-03-16T23:46:58.445Z,9.9
2019-03-16T23:52:03.616Z,9.9
2019-03-16T23:57:08.975Z,9.9
